Time;durP1;ratioP1;P1;durP2;ratioP2;P2;SDS_P1;SDS_P2;PMS_P1;PMS_P2;Temp;Humidity;BMP_temperature;BMP_pressure;BME280_temperature;BME280_humidity;BME280_pressure;Samples;Min_cycle;Max_cycle;Signal;HPM_P1;HPM_P2
2022/11/28 00:01:40;;;;;;;15.23;10.88;;;;;;;5.56;100.00;100359.97;4996738;28;20050;-71
2022/11/28 00:04:07;;;;;;;13.82;10.30;;;;;;;5.51;100.00;100346.13;4987491;28;20121;-72
2022/11/28 00:06:39;;;;;;;15.75;10.82;;;;;;;5.50;100.00;100349.66;4983040;28;20125;-73
2022/11/28 00:09:07;;;;;;;15.90;10.77;;;;;;;5.45;100.00;100336.63;4992470;28;20117;-72
2022/11/28 00:11:33;;;;;;;17.42;11.10;;;;;;;5.38;100.00;100335.06;4996109;28;20058;-71
2022/11/28 00:14:00;;;;;;;14.93;10.27;;;;;;;5.46;100.00;100354.13;4997343;28;20501;-71
2022/11/28 00:16:27;;;;;;;16.20;10.45;;;;;;;5.42;100.00;100362.09;4983350;28;20069;-71
2022/11/28 00:18:53;;;;;;;15.40;10.38;;;;;;;5.39;100.00;100346.44;4997943;28;20451;-71
2022/11/28 00:21:21;;;;;;;14.52;10.55;;;;;;;5.17;100.00;100318.13;5002746;28;20100;-69
2022/11/28 00:23:49;;;;;;;14.90;10.38;;;;;;;5.34;100.00;100340.47;4999214;28;20153;-72
2022/11/28 00:26:19;;;;;;;15.70;10.80;;;;;;;5.33;100.00;100329.09;4989111;28;20042;-72
2022/11/28 00:28:47;;;;;;;15.55;11.27;;;;;;;5.28;100.00;100315.22;4996037;28;20054;-72
2022/11/28 00:31:25;;;;;;;18.00;10.90;;;;;;;5.13;100.00;100295.47;5000841;28;20499;-71
2022/11/28 00:33:52;;;;;;;16.33;11.43;;;;;;;5.19;100.00;100308.47;4996470;28;20046;-71
2022/11/28 00:36:20;;;;;;;16.90;10.48;;;;;;;5.21;100.00;100316.25;4992567;28;20062;-73
2022/11/28 00:38:47;;;;;;;16.70;11.52;;;;;;;5.00;100.00;100298.47;5000115;28;20077;-70
2022/11/28 00:41:21;;;;;;;15.77;11.20;;;;;;;5.02;100.00;100301.91;4996226;28;20065;-71
2022/11/28 00:43:49;;;;;;;14.50;10.73;;;;;;;5.08;100.00;100310.47;4999861;28;20049;-71
2022/11/28 00:46:17;;;;;;;16.23;11.18;;;;;;;5.06;100.00;100304.41;4992386;28;20527;-70
2022/11/28 00:48:44;;;;;;;14.65;10.15;;;;;;;5.08;100.00;100323.59;4996498;28;20057;-71
2022/11/28 00:51:13;;;;;;;14.93;11.20;;;;;;;5.08;100.00;100318.34;4999190;28;20045;-71
2022/11/28 00:53:42;;;;;;;14.88;10.57;;;;;;;5.09;100.00;100317.44;5006016;28;20097;-71
2022/11/28 00:56:11;;;;;;;15.48;10.70;;;;;;;5.11;100.00;100328.78;4990000;28;20074;-71
2022/11/28 00:58:39;;;;;;;15.13;10.35;;;;;;;5.12;100.00;100322.63;4998812;28;20469;-71
2022/11/28 01:01:13;;;;;;;15.15;10.77;;;;;;;5.08;100.00;100325.38;4999394;28;20129;-72
2022/11/28 01:03:40;;;;;;;16.70;11.40;;;;;;;5.04;100.00;100331.59;4994656;28;20049;-71
2022/11/28 01:06:09;;;;;;;16.48;11.82;;;;;;;5.02;100.00;100330.78;4989999;28;20055;-71
2022/11/28 01:08:36;;;;;;;15.85;11.02;;;;;;;4.96;100.00;100309.94;4993100;28;20068;-71
2022/11/28 01:11:09;;;;;;;16.70;11.98;;;;;;;5.10;100.00;100326.19;4997965;28;20138;-71
2022/11/28 01:13:35;;;;;;;15.05;11.45;;;;;;;5.14;100.00;100326.06;4994285;28;20420;-70
2022/11/28 01:16:02;;;;;;;17.23;11.95;;;;;;;5.10;100.00;100311.31;4988253;28;20540;-71
2022/11/28 01:18:29;;;;;;;18.02;12.85;;;;;;;5.10;100.00;100331.44;4995224;28;20046;-71
2022/11/28 01:20:55;;;;;;;16.52;11.63;;;;;;;4.99;100.00;100305.47;5000306;28;20049;-71
2022/11/28 01:23:22;;;;;;;17.83;12.05;;;;;;;5.02;100.00;100312.41;4989531;28;20101;-71
2022/11/28 01:25:49;;;;;;;15.52;12.05;;;;;;;4.95;100.00;100306.44;4995362;28;20124;-71
2022/11/28 01:28:15;;;;;;;16.42;11.50;;;;;;;4.81;100.00;100290.19;4986731;28;20054;-72
2022/11/28 01:30:42;;;;;;;16.75;12.18;;;;;;;4.93;100.00;100305.63;5001032;28;20048;-72
2022/11/28 01:33:08;;;;;;;16.40;12.32;;;;;;;4.97;100.00;100312.53;4994798;28;20051;-71
2022/11/28 01:35:35;;;;;;;17.63;12.02;;;;;;;4.96;100.00;100309.94;4998890;28;20493;-70
2022/11/28 01:38:02;;;;;;;17.52;12.02;;;;;;;4.92;100.00;100303.91;4986227;28;20046;-71
2022/11/28 01:40:28;;;;;;;17.20;12.55;;;;;;;4.94;100.00;100292.47;4999722;28;20625;-70
2022/11/28 01:42:55;;;;;;;17.00;12.80;;;;;;;4.95;100.00;100288.09;4997617;28;20326;-71
2022/11/28 01:45:26;;;;;;;15.88;11.82;;;;;;;4.99;100.00;100278.38;4999314;28;20073;-71
2022/11/28 01:47:57;;;;;;;16.70;12.07;;;;;;;4.94;100.00;100252.25;4986923;28;20157;-72
2022/11/28 01:50:25;;;;;;;15.55;12.15;;;;;;;5.05;100.00;100278.19;4998777;28;20050;-70
2022/11/28 01:52:56;;;;;;;17.60;12.40;;;;;;;5.02;100.00;100281.78;5002746;28;20041;-71
2022/11/28 01:55:27;;;;;;;15.32;11.82;;;;;;;5.01;100.00;100268.69;4994988;28;20049;-71
2022/11/28 01:57:54;;;;;;;15.57;11.80;;;;;;;5.01;100.00;100255.59;4982258;28;20446;-70
2022/11/28 02:00:21;;;;;;;16.50;11.57;;;;;;;4.83;100.00;100235.94;5002797;28;20048;-71
2022/11/28 02:03:04;;;;;;;17.38;12.23;;;;;;;4.76;100.00;100229.09;4996949;28;20511;-69
2022/11/28 02:05:31;;;;;;;18.02;13.20;;;;;;;4.90;100.00;100247.97;4996026;28;20068;-70
2022/11/28 02:07:58;;;;;;;17.92;12.38;;;;;;;4.93;100.00;100246.13;4980766;28;20129;-70
2022/11/28 02:10:55;;;;;;;17.55;12.98;;;;;;;4.93;100.00;100246.13;4999355;28;20510;-70
2022/11/28 02:13:44;;;;;;;18.27;12.98;;;;;;;4.99;100.00;100242.50;4995163;28;20403;-72
2022/11/28 02:16:19;;;;;;;16.88;12.95;;;;;;;5.00;100.00;100240.72;4994052;28;20050;-70
2022/11/28 02:19:07;;;;;;;19.35;13.50;;;;;;;4.99;100.00;100239.88;4983708;28;20054;-70
2022/11/28 02:21:48;;;;;;;19.63;13.35;;;;;;;5.02;100.00;100231.06;4999561;28;20401;-71
2022/11/28 02:25:13;;;;;;;17.58;13.82;;;;;;;5.04;100.00;100230.09;4995984;28;20050;-70
2022/11/28 02:27:54;;;;;;;18.73;13.88;;;;;;;5.03;100.00;100246.78;4928031;29;20058;-70
2022/11/28 02:30:28;;;;;;;20.27;14.48;;;;;;;4.97;100.00;100244.31;4998057;28;20706;-71
2022/11/28 02:33:01;;;;;;;21.48;13.90;;;;;;;4.96;100.00;100241.72;4989580;28;20046;-71
2022/11/28 02:35:50;;;;;;;20.58;14.82;;;;;;;4.99;100.00;100236.38;5002198;28;20066;-72
2022/11/28 02:38:49;;;;;;;20.83;14.50;;;;;;;5.00;100.00;100232.88;4975752;28;20046;-70
2022/11/28 02:41:37;;;;;;;17.50;12.77;;;;;;;5.04;100.00;100229.22;4983830;28;20046;-71
2022/11/28 02:44:10;;;;;;;17.60;12.60;;;;;;;5.08;100.00;100226.50;4994668;28;20050;-70
2022/11/28 02:46:57;;;;;;;18.55;13.68;;;;;;;4.91;100.00;100205.09;4987190;28;20614;-70
2022/11/28 02:49:37;;;;;;;17.35;13.07;;;;;;;5.09;100.00;100222.09;4988589;28;20141;-72
2022/11/28 02:52:09;;;;;;;17.10;12.15;;;;;;;5.11;100.00;100225.56;4994023;28;20046;-71
2022/11/28 02:54:38;;;;;;;16.98;12.70;;;;;;;5.07;100.00;100219.50;4997594;28;20052;-71
2022/11/28 02:57:05;;;;;;;16.63;12.43;;;;;;;5.10;100.00;100222.06;4983251;28;20195;-71
2022/11/28 02:59:37;;;;;;;18.88;12.48;;;;;;;5.12;100.00;100222.03;4992322;28;20502;-70
2022/11/28 03:02:12;;;;;;;15.57;11.55;;;;;;;5.09;100.00;100217.72;4998856;28;20891;-71
2022/11/28 03:05:04;;;;;;;19.17;12.95;;;;;;;5.07;100.00;100209.03;4997986;28;20525;-71
2022/11/28 03:07:59;;;;;;;19.52;12.27;;;;;;;5.08;100.00;100213.38;4984356;28;20046;-70
2022/11/28 03:10:45;;;;;;;16.98;11.95;;;;;;;5.09;100.00;100215.09;5002170;28;20150;-70
2022/11/28 03:13:14;;;;;;;18.60;12.82;;;;;;;5.06;100.00;100216.94;4995413;28;20050;-72
2022/11/28 03:16:09;;;;;;;18.02;12.35;;;;;;;5.04;100.00;100219.59;4990093;28;20138;-71
2022/11/28 03:18:49;;;;;;;16.77;12.35;;;;;;;4.95;100.00;100191.00;4986994;28;20054;-70
2022/11/28 03:21:31;;;;;;;18.08;12.23;;;;;;;5.08;100.00;100218.63;4998659;28;20057;-70
2022/11/28 03:24:28;;;;;;;18.98;12.50;;;;;;;5.09;100.00;100212.47;4994164;28;20065;-70
2022/11/28 03:27:07;;;;;;;19.30;12.23;;;;;;;5.14;100.00;100200.09;4989948;28;20046;-71
2022/11/28 03:29:47;;;;;;;17.70;12.70;;;;;;;5.13;100.00;100203.63;4990664;28;20081;-72
2022/11/28 03:32:21;;;;;;;14.68;11.05;;;;;;;5.11;100.00;100205.41;5004601;28;20498;-72
2022/11/28 03:34:55;;;;;;;17.30;11.85;;;;;;;5.10;100.00;100202.84;4994827;28;20127;-70
2022/11/28 03:37:32;;;;;;;16.83;12.27;;;;;;;5.04;100.00;100198.59;4984508;28;20169;-70
2022/11/28 03:40:04;;;;;;;17.58;12.10;;;;;;;5.02;100.00;100195.19;4997769;28;20104;-70
2022/11/28 03:42:39;;;;;;;16.63;12.40;;;;;;;4.96;100.00;100184.84;4995924;28;20046;-70
2022/11/28 03:45:23;;;;;;;16.67;11.75;;;;;;;5.03;100.00;100188.19;5004272;28;20054;-71
2022/11/28 03:47:58;;;;;;;18.27;12.10;;;;;;;5.04;100.00;100188.09;4980743;28;20069;-71
2022/11/28 03:50:32;;;;;;;15.55;11.48;;;;;;;5.06;100.00;100182.81;5001687;28;20514;-70
2022/11/28 03:53:04;;;;;;;16.55;12.02;;;;;;;5.03;100.00;100186.41;5002615;28;20046;-70
2022/11/28 03:55:38;;;;;;;17.75;12.80;;;;;;;5.03;100.00;100175.91;5001593;28;20057;-70
2022/11/28 03:58:08;;;;;;;16.30;11.55;;;;;;;5.06;100.00;100178.44;4986254;28;20042;-70
2022/11/28 04:00:41;;;;;;;17.02;12.40;;;;;;;5.05;100.00;100174.06;5003565;28;20079;-72
2022/11/28 04:03:22;;;;;;;18.67;12.43;;;;;;;4.89;100.00;100146.53;4999220;28;20092;-69
2022/11/28 04:06:01;;;;;;;19.75;12.90;;;;;;;5.04;100.00;100167.09;4994171;28;20046;-72
2022/11/28 04:09:02;;;;;;;21.05;12.20;;;;;;;5.08;100.00;100165.25;4984153;28;20053;-71
2022/11/28 04:11:43;;;;;;;20.00;12.75;;;;;;;5.04;100.00;100167.09;4990178;28;20077;-71
2022/11/28 04:14:28;;;;;;;17.67;12.63;;;;;;;5.06;100.00;100159.19;5000048;28;20050;-71
2022/11/28 04:17:08;;;;;;;18.67;12.38;;;;;;;5.05;100.00;100160.97;4994536;28;20137;-72
2022/11/28 04:19:44;;;;;;;;;;;;;;;5.07;100.00;100155.66;4993640;28;20052;-70
2022/11/28 04:22:26;;;;;;;18.23;12.57;;;;;;;5.09;100.00;100156.50;4993252;28;20040;-70
2022/11/28 04:25:09;;;;;;;18.60;13.05;;;;;;;5.06;100.00;100149.56;4998039;28;20903;-70
2022/11/28 04:27:42;;;;;;;19.35;13.40;;;;;;;5.03;100.00;100146.19;4990001;28;20043;-71
2022/11/28 04:30:11;;;;;;;20.77;14.20;;;;;;;4.94;100.00;100140.28;4991569;28;20141;-70
2022/11/28 04:32:45;;;;;;;18.40;13.55;;;;;;;4.93;100.00;100143.81;4993993;28;20140;-69
2022/11/28 04:35:19;;;;;;;21.73;14.18;;;;;;;4.84;100.00;100123.09;5000086;28;20050;-71
2022/11/28 04:37:48;;;;;;;22.27;14.95;;;;;;;4.96;100.00;100150.72;4983852;28;20043;-71
2022/11/28 04:40:16;;;;;;;22.40;15.45;;;;;;;4.45;100.00;100051.59;5000945;28;21247;-72
2022/11/28 04:42:54;;;;;;;20.83;14.52;;;;;;;4.98;100.00;100138.44;4993718;28;20150;-70
2022/11/28 04:45:28;;;;;;;20.17;14.18;;;;;;;4.87;100.00;100112.50;4996084;28;20058;-71
2022/11/28 04:47:55;;;;;;;19.52;14.15;;;;;;;5.00;100.00;100134.00;4983342;28;20050;-70
2022/11/28 04:50:24;;;;;;;23.35;14.93;;;;;;;4.99;100.00;100141.91;4998102;28;20253;-71
2022/11/28 04:52:55;;;;;;;23.00;15.57;;;;;;;4.96;100.00;100139.38;5003553;28;20146;-71
2022/11/28 04:55:41;;;;;;;21.38;15.05;;;;;;;4.97;100.00;100141.97;5000979;28;20046;-70
2022/11/28 04:58:15;;;;;;;20.35;14.43;;;;;;;4.96;100.00;100142.00;4980259;28;20156;-70
2022/11/28 05:00:43;;;;;;;21.95;15.13;;;;;;;4.89;100.00;100136.03;5003503;28;20540;-71
2022/11/28 05:03:10;;;;;;;20.48;14.23;;;;;;;4.96;100.00;100142.00;4996188;28;20411;-69
2022/11/28 05:05:50;;;;;;;22.75;15.30;;;;;;;4.93;100.00;100135.94;5006010;28;20490;-70
2022/11/28 05:08:17;;;;;;;21.42;14.38;;;;;;;4.97;100.00;100136.72;4984027;28;20116;-71
2022/11/28 05:10:45;;;;;;;24.25;15.35;;;;;;;5.04;100.00;100140.00;4991156;28;20133;-70
2022/11/28 05:13:12;;;;;;;19.55;14.10;;;;;;;5.09;100.00;100130.25;5004720;28;20145;-70
2022/11/28 05:15:39;;;;;;;21.48;13.88;;;;;;;5.17;100.00;100129.13;5001288;28;20049;-70
2022/11/28 05:18:05;;;;;;;19.35;13.90;;;;;;;5.10;100.00;100110.97;4988970;28;20510;-71
2022/11/28 05:20:33;;;;;;;22.58;14.77;;;;;;;5.24;100.00;100130.66;4999225;28;20145;-70
2022/11/28 05:22:59;;;;;;;21.38;14.13;;;;;;;5.17;100.00;100116.00;5003538;28;20086;-71
2022/11/28 05:25:26;;;;;;;21.65;14.27;;;;;;;5.16;100.00;100124.78;4995758;28;20054;-72
2022/11/28 05:27:52;;;;;;;19.80;14.40;;;;;;;5.19;100.00;100118.59;4983042;28;20046;-70
2022/11/28 05:30:19;;;;;;;22.88;14.93;;;;;;;5.26;100.00;100125.38;4993244;28;20447;-72
2022/11/28 05:32:46;;;;;;;20.70;14.00;;;;;;;5.28;100.00;100119.16;4995392;28;20140;-71
2022/11/28 05:35:13;;;;;;;19.77;14.20;;;;;;;5.28;100.00;100124.41;5000870;28;20065;-71
2022/11/28 05:37:39;;;;;;;22.60;14.88;;;;;;;5.07;100.00;100104.03;4989984;28;20496;-73
2022/11/28 05:40:07;;;;;;;22.00;14.18;;;;;;;5.20;100.00;100128.16;4994943;28;20061;-71
2022/11/28 05:42:34;;;;;;;19.88;13.98;;;;;;;5.20;100.00;100121.16;4994582;28;20081;-72
2022/11/28 05:45:02;;;;;;;19.88;14.65;;;;;;;5.15;100.00;100122.22;4996711;28;20058;-71
2022/11/28 05:47:30;;;;;;;19.17;13.95;;;;;;;5.06;100.00;100110.19;4993782;28;20051;-71
2022/11/28 05:49:57;;;;;;;20.05;15.00;;;;;;;5.07;100.00;100114.53;4987010;28;20047;-71
2022/11/28 05:52:23;;;;;;;20.50;14.75;;;;;;;5.04;100.00;100121.63;5003847;28;20462;-71
2022/11/28 05:54:50;;;;;;;21.23;13.95;;;;;;;5.09;100.00;100123.22;4999516;28;20077;-71
2022/11/28 05:57:17;;;;;;;21.48;14.73;;;;;;;5.11;100.00;100131.94;4997105;28;20057;-69
2022/11/28 05:59:43;;;;;;;22.40;15.10;;;;;;;5.02;100.00;100121.72;4982059;28;20477;-71
2022/11/28 06:02:10;;;;;;;23.13;15.95;;;;;;;4.88;100.00;100110.72;5002997;28;20094;-71
2022/11/28 06:04:40;;;;;;;20.25;14.25;;;;;;;4.96;100.00;100123.63;4996796;28;20065;-71
2022/11/28 06:07:07;;;;;;;20.73;14.50;;;;;;;4.88;100.00;100105.47;4985690;28;20046;-71
2022/11/28 06:09:34;;;;;;;21.75;14.10;;;;;;;4.96;100.00;100119.25;4982802;28;20120;-70
2022/11/28 06:12:00;;;;;;;24.27;14.95;;;;;;;5.02;100.00;100116.47;4995994;28;20054;-72
2022/11/28 06:14:27;;;;;;;21.42;14.95;;;;;;;5.08;100.00;100121.50;5002078;28;20045;-72
2022/11/28 06:16:54;;;;;;;20.88;14.27;;;;;;;4.95;100.00;100088.66;4991476;28;20050;-71
2022/11/28 06:19:20;;;;;;;23.60;15.43;;;;;;;5.13;100.00;100129.25;4981721;28;20548;-70
2022/11/28 06:21:49;;;;;;;22.42;14.68;;;;;;;5.10;100.00;100117.06;5000269;28;20501;-70
2022/11/28 06:24:16;;;;;;;20.40;14.38;;;;;;;5.09;100.00;100122.38;4995629;28;20096;-71
2022/11/28 06:26:43;;;;;;;21.52;15.20;;;;;;;4.93;100.00;100095.72;4990890;28;20138;-71
2022/11/28 06:29:09;;;;;;;24.52;15.25;;;;;;;5.03;100.00;100109.44;4986454;28;20090;-71
2022/11/28 06:31:36;;;;;;;20.95;14.10;;;;;;;5.08;100.00;100116.25;4998464;28;20141;-70
2022/11/28 06:34:03;;;;;;;22.20;14.98;;;;;;;5.13;100.00;100110.88;4997418;28;20201;-72
2022/11/28 06:36:29;;;;;;;21.48;15.25;;;;;;;5.10;100.00;100117.06;5000146;28;20051;-70
2022/11/28 06:38:56;;;;;;;21.67;14.02;;;;;;;5.14;100.00;100116.09;4982846;28;20047;-72
2022/11/28 06:41:23;;;;;;;22.90;14.93;;;;;;;5.16;100.00;100119.53;4989871;28;20078;-70
2022/11/28 06:43:49;;;;;;;23.13;15.70;;;;;;;5.04;100.00;100082.28;4993737;28;20056;-70
2022/11/28 06:46:19;;;;;;;24.40;16.00;;;;;;;5.28;100.00;100120.94;4996741;28;20054;-71
2022/11/28 06:48:47;;;;;;;22.75;16.10;;;;;;;5.28;100.00;100100.78;4980457;28;20047;-70
2022/11/28 06:51:15;;;;;;;22.13;14.90;;;;;;;5.36;100.00;100107.56;4988768;28;20448;-73
2022/11/28 06:53:41;;;;;;;25.83;16.52;;;;;;;5.32;100.00;100101.56;5006186;28;20046;-70
2022/11/28 06:56:12;;;;;;;23.63;15.40;;;;;;;5.32;100.00;100103.34;4989692;28;20722;-70
2022/11/28 06:58:40;;;;;;;26.30;14.32;;;;;;;5.28;100.00;100113.06;4980261;28;20042;-73
2022/11/28 07:01:10;;;;;;;23.70;15.73;;;;;;;5.24;100.00;100117.53;4987795;28;20534;-70
2022/11/28 07:03:38;;;;;;;20.95;14.07;;;;;;;5.09;100.00;100094.38;4996567;28;20077;-71
2022/11/28 07:06:05;;;;;;;23.05;14.90;;;;;;;5.25;100.00;100128.91;4993012;28;20050;-72
2022/11/28 07:08:33;;;;;;;20.70;13.82;;;;;;;5.14;100.00;100118.72;4993242;28;20498;-71
2022/11/28 07:11:20;;;;;;;21.55;14.77;;;;;;;5.25;100.00;100134.16;4996918;28;20076;-72
2022/11/28 07:13:48;;;;;;;19.42;13.32;;;;;;;5.12;100.00;100104.78;4990769;28;20054;-72
2022/11/28 07:16:18;;;;;;;22.67;14.65;;;;;;;5.28;100.00;100134.91;4995286;28;20134;-71
2022/11/28 07:18:45;;;;;;;20.23;14.25;;;;;;;5.25;100.00;100137.63;4978021;28;20146;-71
2022/11/28 07:21:13;;;;;;;20.63;13.98;;;;;;;5.46;100.00;100137.91;5000174;28;20050;-70
2022/11/28 07:23:41;;;;;;;21.02;14.82;;;;;;;5.44;100.00;100139.72;4998457;28;20074;-71
2022/11/28 07:26:10;;;;;;;21.35;14.13;;;;;;;5.31;100.00;100141.00;4995189;28;20133;-73
2022/11/28 07:28:36;;;;;;;22.60;14.13;;;;;;;5.27;100.00;100141.06;4983135;28;20060;-70
2022/11/28 07:31:06;;;;;;;23.38;14.93;;;;;;;5.33;100.00;100136.56;4994136;28;20693;-72
2022/11/28 07:33:34;;;;;;;21.58;14.20;;;;;;;5.30;100.00;100132.25;4993937;28;20137;-71
2022/11/28 07:36:07;;;;;;;23.63;15.10;;;;;;;5.22;100.00;100118.47;5000971;28;20100;-71
2022/11/28 07:38:33;;;;;;;22.45;14.90;;;;;;;5.20;100.00;100110.66;4985164;28;20047;-71
2022/11/28 07:41:11;;;;;;;23.95;15.85;;;;;;;5.17;100.00;100128.28;4988920;28;20443;-72
2022/11/28 07:43:39;;;;;;;23.83;14.73;;;;;;;5.27;100.00;100142.84;4998003;28;20046;-70
2022/11/28 07:46:08;;;;;;;21.40;14.52;;;;;;;5.30;100.00;100134.88;4995570;28;20415;-71
2022/11/28 07:48:35;;;;;;;20.77;14.20;;;;;;;5.38;100.00;100135.50;4980499;28;20042;-71
2022/11/28 07:51:06;;;;;;;22.30;15.00;;;;;;;5.52;100.00;100133.31;4985739;28;20137;-70
2022/11/28 07:53:34;;;;;;;22.95;15.57;;;;;;;5.39;100.00;100141.59;5003298;28;20077;-71
2022/11/28 07:56:05;;;;;;;23.30;14.68;;;;;;;5.36;100.00;100152.19;4991040;28;20049;-71
2022/11/28 07:58:34;;;;;;;21.50;14.77;;;;;;;5.36;100.00;100139.06;4984157;28;20135;-71
2022/11/28 08:01:11;;;;;;;24.08;14.32;;;;;;;5.34;100.00;100117.28;4992712;28;20510;-72
2022/11/28 08:03:37;;;;;;;32.92;21.17;;;;;;;5.52;100.00;100154.31;4995839;28;20129;-70
2022/11/28 08:06:05;;;;;;;20.52;14.18;;;;;;;5.41;100.00;100117.03;4994669;28;20487;-71
2022/11/28 08:08:32;;;;;;;20.35;13.60;;;;;;;5.59;100.00;100139.25;4986821;28;20519;-70
2022/11/28 08:11:00;;;;;;;21.88;14.35;;;;;;;5.64;100.00;100147.84;4989189;28;20054;-70
2022/11/28 08:13:28;;;;;;;21.50;15.02;;;;;;;5.61;100.00;100132.19;4998781;28;20048;-70
2022/11/28 08:15:54;;;;;;;22.85;14.50;;;;;;;5.63;100.00;100133.88;4997499;28;20046;-70
2022/11/28 08:18:21;;;;;;;21.52;13.70;;;;;;;5.63;100.00;100130.38;4993928;28;20059;-71
2022/11/28 08:20:48;;;;;;;21.00;14.52;;;;;;;5.61;100.00;100134.81;4987286;28;20125;-72
2022/11/28 08:23:15;;;;;;;20.52;14.18;;;;;;;5.60;100.00;100136.59;5001176;28;20046;-71
2022/11/28 08:25:42;;;;;;;22.38;14.27;;;;;;;5.62;100.00;100133.91;4996508;28;20145;-70
2022/11/28 08:28:09;;;;;;;24.10;14.38;;;;;;;5.62;100.00;100137.41;4995184;28;20046;-70
2022/11/28 08:30:35;;;;;;;25.90;16.10;;;;;;;5.58;100.00;100138.38;4983828;28;20052;-71
2022/11/28 08:33:02;;;;;;;25.45;15.18;;;;;;;5.48;100.00;100120.34;5004804;28;20074;-70
2022/11/28 08:35:30;;;;;;;46.63;27.23;;;;;;;5.62;100.00;100142.66;5001833;28;20053;-71
2022/11/28 08:37:56;;;;;;;26.90;17.02;;;;;;;5.52;100.00;100116.69;4992125;28;20421;-70
2022/11/28 08:40:27;;;;;;;24.40;15.40;;;;;;;5.58;100.00;100111.25;4985302;28;20054;-71
2022/11/28 08:42:54;;;;;;;23.65;14.85;;;;;;;5.61;100.00;100119.06;4990999;28;20483;-70
2022/11/28 08:45:21;;;;;;;22.58;14.25;;;;;;;5.72;100.00;100135.34;4999551;28;20050;-71
2022/11/28 08:47:47;;;;;;;24.15;15.75;;;;;;;5.62;100.00;100113.75;4996058;28;20046;-71
2022/11/28 08:50:14;;;;;;;20.70;14.65;;;;;;;5.75;100.00;100119.47;4984450;28;20066;-71
2022/11/28 08:52:41;;;;;;;24.73;15.75;;;;;;;5.77;100.00;100122.91;5000062;28;20139;-71
2022/11/28 08:55:08;;;;;;;22.15;14.02;;;;;;;5.87;100.00;100134.84;4999556;28;20408;-71
2022/11/28 08:57:34;;;;;;;25.42;16.08;;;;;;;5.89;100.00;100122.56;4997800;28;20066;-72
2022/11/28 09:00:01;;;;;;;22.50;15.05;;;;;;;5.92;100.00;100121.59;4987282;28;20491;-71
2022/11/28 09:02:27;;;;;;;21.50;14.45;;;;;;;5.89;100.00;100122.56;5002809;28;20064;-71
2022/11/28 09:04:54;;;;;;;20.80;14.18;;;;;;;5.90;100.00;100121.66;5000786;28;20050;-71
2022/11/28 09:07:21;;;;;;;21.50;14.88;;;;;;;5.97;100.00;100115.28;5002328;28;20058;-72
2022/11/28 09:09:47;;;;;;;22.65;14.90;;;;;;;5.97;100.00;100122.31;4984509;28;20053;-71
2022/11/28 09:12:15;;;;;;;24.25;15.27;;;;;;;5.92;100.00;100126.84;4996007;28;20038;-71
2022/11/28 09:14:41;;;;;;;21.05;14.60;;;;;;;5.94;100.00;100136.41;5007182;28;20490;-71
2022/11/28 09:17:08;;;;;;;25.15;15.15;;;;;;;5.90;100.00;100140.03;4997710;28;20486;-72
2022/11/28 09:19:34;;;;;;;22.83;14.80;;;;;;;5.99;100.00;100139.72;4982522;28;20062;-72
2022/11/28 09:22:01;;;;;;;22.92;14.52;;;;;;;6.05;100.00;100138.69;4998223;28;20406;-72
2022/11/28 09:24:28;;;;;;;20.88;13.82;;;;;;;6.20;100.00;100148.69;4992319;28;20111;-69
2022/11/28 09:26:54;;;;;;;19.52;13.45;;;;;;;6.29;100.00;100144.91;5001027;28;20382;-71
2022/11/28 09:29:21;;;;;;;21.55;14.70;;;;;;;6.40;100.00;100149.81;4980211;28;20078;-73
2022/11/28 09:31:47;;;;;;;21.55;14.80;;;;;;;6.43;100.00;100149.72;4992204;28;20066;-70
2022/11/28 09:34:14;;;;;;;21.92;14.93;;;;;;;6.48;100.00;100143.38;4999620;28;20046;-71
2022/11/28 09:36:41;;;;;;;21.45;14.77;;;;;;;6.53;100.00;100143.22;4999047;28;20108;-70
2022/11/28 09:39:08;;;;;;;23.00;14.57;;;;;;;6.57;100.00;100139.56;4989209;28;20568;-70
2022/11/28 09:42:12;;;;;;;21.88;14.77;;;;;;;6.61;100.00;100139.41;4991103;28;20706;-71
2022/11/28 09:45:05;;;;;;;22.40;14.40;;;;;;;6.62;100.00;100130.59;4990272;28;20069;-70
2022/11/28 09:47:35;;;;;;;19.83;13.38;;;;;;;6.65;100.00;100133.13;5002220;28;20073;-72
2022/11/28 09:50:14;;;;;;;21.35;14.43;;;;;;;6.68;99.80;100125.13;4985547;28;20415;-71
2022/11/28 09:53:11;;;;;;;20.58;13.82;;;;;;;6.71;99.84;100123.31;4996852;28;20054;-72
2022/11/28 09:55:53;;;;;;;21.33;14.73;;;;;;;6.73;100.00;100119.72;4999155;28;20058;-72
2022/11/28 09:58:57;;;;;;;22.02;13.77;;;;;;;6.79;99.68;100121.25;4994453;28;20090;-69
2022/11/28 10:01:33;;;;;;;19.23;13.73;;;;;;;6.84;99.53;100114.03;4994164;28;20061;-70
2022/11/28 10:04:02;;;;;;;19.27;13.27;;;;;;;6.91;98.74;100112.94;4992964;28;20100;-72
2022/11/28 10:07:08;;;;;;;19.13;13.33;;;;;;;6.89;98.46;100115.63;5004660;28;20523;-70
2022/11/28 10:09:45;;;;;;;17.33;12.93;;;;;;;6.87;98.29;100106.91;4982307;28;20712;-71
2022/11/28 10:12:37;;;;;;;18.48;13.15;;;;;;;6.93;98.22;100121.59;4988808;28;20035;-71
2022/11/28 10:15:10;;;;;;;20.40;14.38;;;;;;;6.93;99.03;100118.97;5001593;28;20046;-71
2022/11/28 10:17:58;;;;;;;19.38;12.73;;;;;;;6.80;98.53;100092.25;4998975;28;20082;-72
2022/11/28 10:20:31;;;;;;;20.50;13.77;;;;;;;6.92;98.24;100110.25;4972579;28;20061;-71
2022/11/28 10:23:15;;;;;;;21.15;14.45;;;;;;;6.99;97.92;100113.50;5001541;28;20108;-71
2022/11/28 10:25:55;;;;;;;20.60;14.00;;;;;;;7.00;96.83;100108.16;4997038;28;20647;-70
2022/11/28 10:28:30;;;;;;;21.25;13.80;;;;;;;6.95;98.13;100106.63;4988459;28;20074;-72
2022/11/28 10:31:05;;;;;;;20.80;14.38;;;;;;;7.04;99.12;100104.50;4986450;28;20096;-70
2022/11/28 10:33:40;;;;;;;19.88;13.48;;;;;;;7.15;98.17;100104.09;4999542;28;20450;-72
2022/11/28 10:36:15;;;;;;;20.20;13.90;;;;;;;6.94;96.80;100078.56;4998602;28;20056;-71
2022/11/28 10:38:42;;;;;;;20.48;13.32;;;;;;;6.87;98.07;100101.66;5000058;28;20152;-70
2022/11/28 10:41:19;;;;;;;19.25;13.55;;;;;;;6.76;99.24;100097.69;4984261;28;20050;-72
2022/11/28 10:43:56;;;;;;;20.60;13.40;;;;;;;6.66;100.00;100094.50;4997767;28;20198;-71
2022/11/28 10:46:45;;;;;;;21.27;13.48;;;;;;;6.73;100.00;100108.31;4996409;28;20070;-71
2022/11/28 10:49:34;;;;;;;21.23;14.23;;;;;;;6.80;100.00;100105.41;4988031;28;20047;-71
2022/11/28 10:52:05;;;;;;;19.70;13.25;;;;;;;7.01;98.33;100104.63;4994263;28;20165;-72
2022/11/28 10:55:06;;;;;;;19.45;12.93;;;;;;;7.03;98.73;100097.53;4999716;28;20129;-72
2022/11/28 10:57:42;;;;;;;21.50;13.80;;;;;;;7.12;99.55;100088.41;4981335;28;20050;-72
2022/11/28 11:00:17;;;;;;;18.60;12.52;;;;;;;7.23;98.06;100091.53;4986349;28;20053;-71
2022/11/28 11:02:49;;;;;;;18.58;12.43;;;;;;;7.31;97.30;100088.59;4989454;28;20062;-71
2022/11/28 11:05:19;;;;;;;24.02;13.65;;;;;;;7.35;97.27;100085.78;4999862;28;20129;-72
2022/11/28 11:08:25;;;;;;;20.57;12.60;;;;;;;7.41;96.57;100087.28;4996586;28;20085;-71
2022/11/28 11:11:22;;;;;;;22.35;13.20;;;;;;;7.51;96.19;100079.91;4970275;28;20051;-72
2022/11/28 11:14:00;;;;;;;18.15;12.60;;;;;;;7.58;96.27;100079.59;4995337;28;20133;-71
2022/11/28 11:16:48;;;;;;;19.08;12.65;;;;;;;7.68;95.94;100073.06;4997657;28;20140;-72
2022/11/28 11:19:35;;;;;;;23.10;14.25;;;;;;;7.76;95.24;100070.09;4996663;28;20081;-72
2022/11/28 11:22:11;;;;;;;19.38;13.20;;;;;;;7.82;94.94;100064.59;4988075;28;20134;-72
2022/11/28 11:24:37;;;;;;;19.70;13.02;;;;;;;7.88;95.27;100069.59;4991159;28;20060;-72
2022/11/28 11:27:17;;;;;;;20.60;13.98;;;;;;;7.93;95.01;100069.41;4998406;28;20043;-72
2022/11/28 11:29:44;;;;;;;20.50;13.23;;;;;;;7.82;94.58;100043.50;4988151;28;20089;-72
2022/11/28 11:32:22;;;;;;;20.10;13.23;;;;;;;8.02;94.03;100063.78;4995562;28;20050;-71
2022/11/28 11:34:49;;;;;;;20.85;12.98;;;;;;;8.08;94.39;100066.13;4993306;28;20050;-72